createdAt,value
2023-03-01T00:00:23.546Z,34.85
2023-03-01T00:03:31.435Z,30.40
2023-03-01T00:06:37.821Z,35.73
2023-03-01T00:09:46.099Z,32.63
2023-03-01T00:12:52.507Z,31.65
2023-03-01T00:15:58.453Z,38.73
2023-03-01T00:19:05.881Z,35.20
2023-03-01T00:22:12.525Z,31.77
2023-03-01T00:25:17.563Z,33.73
2023-03-01T00:28:25.391Z,32.03
2023-03-01T00:31:34.126Z,32.05
2023-03-01T00:34:34.072Z,29.95
2023-03-01T00:37:40.353Z,38.63
2023-03-01T00:40:47.909Z,37.50
2023-03-01T00:43:54.585Z,37.60
2023-03-01T00:47:02.290Z,33.28
2023-03-01T00:50:08.923Z,30.97
2023-03-01T00:53:13.712Z,38.10
2023-03-01T00:56:21.646Z,38.38
2023-03-01T00:59:28.066Z,34.20
2023-03-01T01:02:35.689Z,29.15
2023-03-01T01:05:41.591Z,31.02
2023-03-01T01:08:48.170Z,28.25
2023-03-01T01:11:53.969Z,26.77
2023-03-01T01:14:58.957Z,28.10
2023-03-01T01:18:04.644Z,31.62
2023-03-01T01:21:09.882Z,29.48
2023-03-01T01:24:17.546Z,32.13
2023-03-01T01:27:23.384Z,29.57
2023-03-01T01:30:22.468Z,31.68
2023-03-01T01:33:30.036Z,25.95
2023-03-01T01:36:29.736Z,29.40
2023-03-01T01:39:35.008Z,33.78
2023-03-01T01:42:40.049Z,33.85
2023-03-01T01:45:48.687Z,39.65
2023-03-01T01:48:58.024Z,31.85
2023-03-01T01:52:04.296Z,29.87
2023-03-01T01:55:14.047Z,28.25
2023-03-01T01:58:21.592Z,31.97
2023-03-01T02:01:27.560Z,26.48
2023-03-01T02:04:34.190Z,32.10
2023-03-01T02:07:39.912Z,33.30
2023-03-01T02:10:47.166Z,36.77
2023-03-01T02:13:53.097Z,36.00
2023-03-01T02:16:59.641Z,28.85
2023-03-01T02:20:30.682Z,29.60
2023-03-01T02:23:35.556Z,34.58
2023-03-01T02:26:58.203Z,31.87
2023-03-01T02:30:03.292Z,34.50
2023-03-01T02:33:11.891Z,34.58
2023-03-01T02:36:31.653Z,33.00
2023-03-01T02:39:50.175Z,33.73
2023-03-01T02:43:08.724Z,30.10
2023-03-01T02:46:21.316Z,31.50
2023-03-01T02:49:38.720Z,27.87
2023-03-01T02:52:58.297Z,32.40
2023-03-01T02:59:10.341Z,26.73
2023-03-01T03:02:17.416Z,34.35
2023-03-01T03:05:32.238Z,34.85
2023-03-01T03:08:38.836Z,33.13
2023-03-01T03:11:44.473Z,33.90
2023-03-01T03:14:50.277Z,29.00
2023-03-01T03:17:56.350Z,29.45
2023-03-01T03:21:03.743Z,28.83
2023-03-01T03:24:09.609Z,27.45
2023-03-01T03:27:15.491Z,29.05
2023-03-01T03:30:22.969Z,28.32
2023-03-01T03:33:28.320Z,36.03
2023-03-01T03:36:37.111Z,29.42
2023-03-01T03:39:42.814Z,29.02
2023-03-01T03:42:48.447Z,31.50
2023-03-01T03:45:54.188Z,35.00
2023-03-01T03:48:54.871Z,29.82
2023-03-01T03:52:02.110Z,32.20
2023-03-01T03:55:07.795Z,32.30
2023-03-01T03:58:15.228Z,28.60
2023-03-01T04:01:20.101Z,27.80
2023-03-01T04:04:26.898Z,33.00
2023-03-01T04:07:32.904Z,31.60
2023-03-01T04:10:39.489Z,35.43
2023-03-01T04:13:45.853Z,31.93
2023-03-01T04:16:52.488Z,32.95
2023-03-01T04:19:58.002Z,27.37
2023-03-01T04:23:05.598Z,26.95
2023-03-01T04:26:12.777Z,34.23
2023-03-01T04:29:18.272Z,33.78
2023-03-01T04:32:25.910Z,34.55
2023-03-01T04:35:31.689Z,32.30
2023-03-01T04:38:38.078Z,35.17
2023-03-01T04:41:43.803Z,34.30
2023-03-01T04:44:51.105Z,28.35
2023-03-01T04:48:00.492Z,25.70
2023-03-01T04:51:06.127Z,32.90
2023-03-01T04:54:13.109Z,28.92
2023-03-01T04:57:20.148Z,29.48
2023-03-01T05:00:31.161Z,30.50
2023-03-01T05:03:37.858Z,29.32
2023-03-01T05:06:43.512Z,36.50
2023-03-01T05:09:49.026Z,36.33
2023-03-01T05:12:55.971Z,31.15
2023-03-01T05:16:04.816Z,30.88
2023-03-01T05:19:13.023Z,32.60
2023-03-01T05:22:18.760Z,30.70
2023-03-01T05:25:25.439Z,25.57
2023-03-01T05:28:32.189Z,27.62
2023-03-01T05:31:39.219Z,29.90
2023-03-01T05:34:43.060Z,28.73
2023-03-01T05:37:49.223Z,32.00
2023-03-01T05:40:54.180Z,28.45
2023-03-01T05:44:00.494Z,31.75
2023-03-01T05:47:07.167Z,32.10
2023-03-01T05:50:12.668Z,24.65
2023-03-01T05:53:21.195Z,27.27
2023-03-01T05:56:26.365Z,26.70
2023-03-01T05:59:31.914Z,28.25
2023-03-01T06:02:37.508Z,30.15
2023-03-01T06:05:43.432Z,27.85
2023-03-01T06:08:49.230Z,29.10
2023-03-01T06:11:55.455Z,29.12
2023-03-01T06:15:01.675Z,31.52
2023-03-01T06:18:06.516Z,37.50
2023-03-01T06:21:12.326Z,34.27
2023-03-01T06:24:17.168Z,42.50
2023-03-01T06:27:23.237Z,41.42
2023-03-01T06:30:32.227Z,29.95
2023-03-01T06:33:38.074Z,33.23
2023-03-01T06:36:44.516Z,34.65
2023-03-01T06:39:49.944Z,34.75
2023-03-01T06:42:59.347Z,34.10
2023-03-01T06:49:12.262Z,31.10
2023-03-01T06:52:17.697Z,32.30
2023-03-01T06:55:26.263Z,27.05
2023-03-01T06:58:31.253Z,29.90
2023-03-01T07:01:37.280Z,30.62
2023-03-01T07:04:43.350Z,29.45
2023-03-01T07:07:50.073Z,28.75
2023-03-01T07:10:56.509Z,28.57
2023-03-01T07:14:04.058Z,30.92
2023-03-01T07:17:09.247Z,37.83
2023-03-01T07:20:15.131Z,32.98
2023-03-01T07:23:21.651Z,31.75
2023-03-01T07:26:27.106Z,28.32
2023-03-01T07:29:32.913Z,33.33
2023-03-01T07:32:38.096Z,29.95
2023-03-01T07:35:44.816Z,31.82
2023-03-01T07:38:51.065Z,30.55
2023-03-01T07:41:56.168Z,34.00
2023-03-01T07:44:56.063Z,31.70
2023-03-01T07:48:04.464Z,34.20
2023-03-01T07:51:09.814Z,34.70
2023-03-01T07:54:15.838Z,27.82
2023-03-01T07:57:20.990Z,31.97
2023-03-01T08:00:28.722Z,32.05
2023-03-01T08:03:35.278Z,29.52
2023-03-01T08:06:42.266Z,28.65
2023-03-01T08:09:49.785Z,29.80
2023-03-01T08:12:55.688Z,28.62
2023-03-01T08:15:54.646Z,31.57
2023-03-01T08:18:59.606Z,29.18
2023-03-01T08:22:05.542Z,31.50
2023-03-01T08:25:11.108Z,25.43
2023-03-01T08:28:16.538Z,35.55
2023-03-01T08:31:39.437Z,24.55
2023-03-01T08:34:44.948Z,30.65
2023-03-01T08:37:50.748Z,21.55
2023-03-01T08:40:56.412Z,19.87
2023-03-01T08:44:06.559Z,24.00
2023-03-01T08:47:13.811Z,18.87
2023-03-01T08:50:19.104Z,19.95
2023-03-01T08:53:24.780Z,24.00
2023-03-01T08:56:31.420Z,18.40
2023-03-01T08:59:37.645Z,20.43
2023-03-01T09:02:42.915Z,18.27
2023-03-01T09:05:48.470Z,19.10
2023-03-01T09:08:54.413Z,16.42
2023-03-01T09:12:01.214Z,18.87
2023-03-01T09:15:07.948Z,19.60
2023-03-01T09:18:13.862Z,15.48
2023-03-01T09:21:37.224Z,16.35
2023-03-01T09:24:30.474Z,19.98
2023-03-01T09:27:36.677Z,20.32
2023-03-01T09:30:43.137Z,13.93
2023-03-01T09:33:49.621Z,17.62
2023-03-01T09:36:55.239Z,16.77
2023-03-01T09:40:01.583Z,15.20
2023-03-01T09:43:20.189Z,13.75
2023-03-01T09:46:28.164Z,20.00
2023-03-01T09:49:40.902Z,13.50
2023-03-01T09:52:58.492Z,17.67
2023-03-01T09:56:14.719Z,17.23
2023-03-01T09:59:31.382Z,18.62
2023-03-01T10:02:43.864Z,11.53
2023-03-01T10:05:53.252Z,13.72
2023-03-01T10:09:10.365Z,13.65
2023-03-01T10:12:16.836Z,13.38
2023-03-01T10:15:42.803Z,13.13
2023-03-01T10:18:49.068Z,11.68
2023-03-01T10:21:59.849Z,13.35
2023-03-01T10:25:06.526Z,11.70
2023-03-01T10:28:10.700Z,13.95
2023-03-01T10:31:17.009Z,11.95
2023-03-01T10:34:25.798Z,13.88
2023-03-01T10:37:35.240Z,12.82
2023-03-01T10:40:40.802Z,11.50
2023-03-01T10:44:14.358Z,14.00
2023-03-01T10:47:20.318Z,13.40
2023-03-01T10:50:36.655Z,14.20
2023-03-01T10:53:47.528Z,15.63
2023-03-01T10:57:04.097Z,15.58
2023-03-01T11:00:13.841Z,15.58
2023-03-01T11:03:26.291Z,16.70
2023-03-01T11:06:37.557Z,13.43
2023-03-01T11:09:48.956Z,15.38
2023-03-01T11:12:55.001Z,12.90
2023-03-01T11:16:19.258Z,12.98
2023-03-01T11:19:30.115Z,14.98
2023-03-01T11:22:37.785Z,13.90
2023-03-01T11:26:13.732Z,11.53
2023-03-01T11:29:25.003Z,10.43
2023-03-01T11:32:30.546Z,11.75
2023-03-01T11:35:43.120Z,14.55
2023-03-01T11:38:51.806Z,14.58
2023-03-01T11:42:03.556Z,13.88
2023-03-01T11:45:10.159Z,12.20
2023-03-01T11:48:50.161Z,11.08
2023-03-01T11:52:38.084Z,10.23
2023-03-01T11:56:23.789Z,14.63
2023-03-01T12:00:03.847Z,11.70
2023-03-01T12:03:30.220Z,13.15
2023-03-01T12:07:14.234Z,16.00
2023-03-01T12:10:39.283Z,13.68
2023-03-01T12:14:21.328Z,12.18
2023-03-01T12:18:20.546Z,14.70
2023-03-01T12:21:47.854Z,13.22
2023-03-01T12:25:03.632Z,13.38
2023-03-01T12:28:35.730Z,15.53
2023-03-01T12:31:56.937Z,12.75
2023-03-01T12:35:22.619Z,16.42
2023-03-01T12:38:58.670Z,14.10
2023-03-01T12:42:22.301Z,12.63
2023-03-01T12:45:56.124Z,14.13
2023-03-01T12:49:30.018Z,14.38
2023-03-01T12:52:49.387Z,12.25
2023-03-01T12:55:56.917Z,13.88
2023-03-01T12:59:22.465Z,12.07
2023-03-01T13:02:59.579Z,14.35
2023-03-01T13:06:49.232Z,14.55
2023-03-01T13:10:00.267Z,13.15
2023-03-01T13:13:16.277Z,11.63
2023-03-01T13:16:40.537Z,11.65
2023-03-01T13:19:48.853Z,11.97
2023-03-01T13:22:54.782Z,11.05
2023-03-01T13:25:43.655Z,10.32
2023-03-01T13:28:55.957Z,11.28
2023-03-01T13:32:11.903Z,13.58
2023-03-01T13:35:29.820Z,11.45
2023-03-01T13:39:01.170Z,11.08
2023-03-01T13:42:09.135Z,10.53
2023-03-01T13:45:14.862Z,15.75
2023-03-01T13:48:32.673Z,14.28
2023-03-01T13:51:40.926Z,16.15
2023-03-01T13:54:48.653Z,15.80
2023-03-01T13:57:55.028Z,15.60
2023-03-01T14:01:02.526Z,19.77
2023-03-01T14:04:09.241Z,17.77
2023-03-01T14:07:39.229Z,16.10
2023-03-01T14:10:54.748Z,17.52
2023-03-01T14:14:24.132Z,18.00
2023-03-01T14:17:58.849Z,16.85
2023-03-01T14:21:05.401Z,26.37
2023-03-01T14:24:11.302Z,29.35
2023-03-01T14:27:20.366Z,26.50
2023-03-01T14:30:35.810Z,24.05
2023-03-01T14:33:49.176Z,27.17
2023-03-01T14:36:57.096Z,28.95
2023-03-01T14:40:02.962Z,29.35
2023-03-01T14:43:10.801Z,24.30
2023-03-01T14:46:16.212Z,24.30
2023-03-01T14:49:31.814Z,27.05
2023-03-01T14:52:38.415Z,22.32
2023-03-01T14:55:54.021Z,26.00
2023-03-01T14:58:53.807Z,23.67
2023-03-01T15:01:59.951Z,22.95
2023-03-01T15:05:14.750Z,27.02
2023-03-01T15:08:20.776Z,24.30
2023-03-01T15:11:47.106Z,21.73
2023-03-01T15:15:03.942Z,29.85
2023-03-01T15:18:10.881Z,26.65
2023-03-01T15:21:31.514Z,23.85
2023-03-01T15:24:41.882Z,23.57
2023-03-01T15:27:49.613Z,22.52
2023-03-01T15:30:56.267Z,24.43
2023-03-01T15:34:03.216Z,25.65
2023-03-01T15:37:09.721Z,24.00
2023-03-01T15:40:15.385Z,29.05
2023-03-01T15:43:21.502Z,25.10
2023-03-01T15:46:36.927Z,25.48
2023-03-01T15:49:55.406Z,26.20
2023-03-01T15:53:01.783Z,28.35
2023-03-01T15:56:07.916Z,32.65
2023-03-01T15:59:20.069Z,30.97
2023-03-01T16:02:28.565Z,30.85
2023-03-01T16:05:46.075Z,32.05
2023-03-01T16:08:50.793Z,27.10
2023-03-01T16:11:56.569Z,30.20
2023-03-01T16:14:55.817Z,28.70
2023-03-01T16:18:02.484Z,32.40
2023-03-01T16:21:08.642Z,30.95
2023-03-01T16:24:15.322Z,28.57
2023-03-01T16:27:23.352Z,33.02
2023-03-01T16:30:31.705Z,30.20
2023-03-01T16:33:37.131Z,29.70
2023-03-01T16:36:44.842Z,32.08
2023-03-01T16:39:53.303Z,29.70
2023-03-01T16:42:59.715Z,28.15
2023-03-01T16:46:07.383Z,28.75
2023-03-01T16:49:13.649Z,36.33
2023-03-01T16:52:19.627Z,31.17
2023-03-01T16:55:26.470Z,38.17
2023-03-01T16:58:33.859Z,27.32
2023-03-01T17:01:42.265Z,30.68
2023-03-01T17:04:48.449Z,30.80
2023-03-01T17:07:55.232Z,28.65
2023-03-01T17:10:54.183Z,26.35
2023-03-01T17:14:01.588Z,24.47
2023-03-01T17:17:07.531Z,24.32
2023-03-01T17:20:14.086Z,24.05
2023-03-01T17:23:19.382Z,25.40
2023-03-01T17:26:25.253Z,28.45
2023-03-01T17:29:30.733Z,25.95
2023-03-01T17:32:36.510Z,24.18
2023-03-01T17:35:44.434Z,26.80
2023-03-01T17:38:49.924Z,23.80
2023-03-01T17:41:57.563Z,34.10
2023-03-01T17:45:04.262Z,24.98
2023-03-01T17:48:10.664Z,28.47
2023-03-01T17:51:26.430Z,25.55
2023-03-01T17:54:32.967Z,31.07
2023-03-01T17:57:39.656Z,29.55
2023-03-01T18:00:45.220Z,32.58
2023-03-01T18:03:54.701Z,29.72
2023-03-01T18:07:00.249Z,29.45
2023-03-01T18:10:06.269Z,33.23
2023-03-01T18:13:07.087Z,26.33
2023-03-01T18:15:52.961Z,30.92
2023-03-01T18:18:46.400Z,29.27
2023-03-01T18:21:47.987Z,27.52
2023-03-01T18:24:46.763Z,31.70
2023-03-01T18:27:40.974Z,26.90
2023-03-01T18:30:46.715Z,30.48
2023-03-01T18:33:53.108Z,30.08
2023-03-01T18:37:09.271Z,26.75
2023-03-01T18:40:08.059Z,28.85
2023-03-01T18:43:14.188Z,28.32
2023-03-01T18:46:20.262Z,23.25
2023-03-01T18:49:20.235Z,24.87
2023-03-01T18:52:13.488Z,23.70
2023-03-01T18:55:21.628Z,27.00
2023-03-01T18:58:29.425Z,24.52
2023-03-01T19:01:40.225Z,28.42
2023-03-01T19:04:46.912Z,30.27
2023-03-01T19:07:52.019Z,25.37
2023-03-01T19:10:58.538Z,29.60
2023-03-01T19:14:05.252Z,30.85
2023-03-01T19:17:10.293Z,26.48
2023-03-01T19:20:15.687Z,29.05
2023-03-01T19:23:22.158Z,24.92
2023-03-01T19:26:30.784Z,24.00
2023-03-01T19:29:37.696Z,29.90
2023-03-01T19:32:44.860Z,26.05
2023-03-01T19:35:50.990Z,28.50
2023-03-01T19:38:57.245Z,26.82
2023-03-01T19:42:03.601Z,27.90
2023-03-01T19:45:09.917Z,28.23
2023-03-01T19:48:17.173Z,24.20
2023-03-01T19:51:23.639Z,28.07
2023-03-01T19:54:30.260Z,29.70
2023-03-01T19:57:35.968Z,26.80
2023-03-01T20:00:42.330Z,30.70
2023-03-01T20:03:49.340Z,26.85
2023-03-01T20:06:56.712Z,25.43
2023-03-01T20:10:03.309Z,25.77
2023-03-01T20:13:09.217Z,26.55
2023-03-01T20:16:15.838Z,24.57
2023-03-01T20:19:24.256Z,34.55
2023-03-01T20:22:29.944Z,24.45
2023-03-01T20:25:35.485Z,26.65
2023-03-01T20:28:42.454Z,28.62
2023-03-01T20:31:49.386Z,25.85
2023-03-01T20:34:55.998Z,24.90
2023-03-01T20:38:01.334Z,27.95
2023-03-01T20:41:11.872Z,29.37
2023-03-01T20:44:18.462Z,26.07
2023-03-01T20:47:27.310Z,25.50
2023-03-01T20:50:33.628Z,28.02
2023-03-01T20:53:40.104Z,29.77
2023-03-01T20:56:46.538Z,23.83
2023-03-01T20:59:46.204Z,27.05
2023-03-01T21:02:31.528Z,27.05
2023-03-01T21:05:24.964Z,23.57
2023-03-01T21:08:30.261Z,27.37
2023-03-01T21:11:36.104Z,29.82
2023-03-01T21:14:44.012Z,31.77
2023-03-01T21:17:51.642Z,25.82
2023-03-01T21:20:58.307Z,31.27
2023-03-01T21:24:04.020Z,26.05
2023-03-01T21:27:11.139Z,30.15
2023-03-01T21:30:16.989Z,31.65
2023-03-01T21:33:22.449Z,29.02
2023-03-01T21:36:28.562Z,30.60
2023-03-01T21:39:37.121Z,30.05
2023-03-01T21:42:44.142Z,28.77
2023-03-01T21:45:51.136Z,32.03
2023-03-01T21:48:58.493Z,31.30
2023-03-01T21:52:04.555Z,30.60
2023-03-01T21:55:11.530Z,30.82
2023-03-01T21:58:17.206Z,31.10
2023-03-01T22:01:25.902Z,28.38
2023-03-01T22:04:32.131Z,34.43
2023-03-01T22:07:36.936Z,31.37
2023-03-01T22:10:42.430Z,26.50
2023-03-01T22:13:48.934Z,30.95
2023-03-01T22:16:54.515Z,30.70
2023-03-01T22:20:00.169Z,32.10
2023-03-01T22:23:05.632Z,34.23
2023-03-01T22:26:12.032Z,32.42
2023-03-01T22:29:19.924Z,31.60
2023-03-01T22:32:26.178Z,33.28
2023-03-01T22:35:32.697Z,31.70
2023-03-01T22:41:54.761Z,37.05
2023-03-01T22:45:01.458Z,37.58
2023-03-01T22:48:07.122Z,36.17
2023-03-01T22:51:12.844Z,34.85
2023-03-01T22:54:18.972Z,29.32
2023-03-01T22:57:25.357Z,35.70
2023-03-01T23:00:31.214Z,34.78
2023-03-01T23:03:37.687Z,32.93
2023-03-01T23:06:46.414Z,38.00
2023-03-01T23:09:53.078Z,30.90
2023-03-01T23:12:59.064Z,33.45
2023-03-01T23:16:09.343Z,33.83
2023-03-01T23:19:16.163Z,34.73
2023-03-01T23:22:22.473Z,35.28
2023-03-01T23:25:21.226Z,34.83
2023-03-01T23:31:34.468Z,35.73
2023-03-01T23:34:41.381Z,35.65
2023-03-01T23:37:47.841Z,32.83
2023-03-01T23:40:55.339Z,34.63
2023-03-01T23:44:04.140Z,39.18
2023-03-01T23:47:10.985Z,39.03
2023-03-01T23:50:17.650Z,42.80
2023-03-01T23:53:33.486Z,36.23
2023-03-01T23:56:52.653Z,37.35
2023-03-01T23:59:58.042Z,29.77
